Time;durP1;ratioP1;P1;durP2;ratioP2;P2;SDS_P1;SDS_P2;PMS_P1;PMS_P2;Temp;Humidity;BMP_temperature;BMP_pressure;BME280_temperature;BME280_humidity;BME280_pressure;Samples;Min_cycle;Max_cycle;Signal;HPM_P1;HPM_P2
2023/04/29 00:01:09;;;;;;;;;;;;;;;21.80;24.08;97960.63;5003751;28;968;-78
2023/04/29 00:03:34;;;;;;;;;;;;;;;21.92;23.83;97955.47;5002884;28;1016;-78
2023/04/29 00:06:00;;;;;;;;;;;;;;;22.03;23.50;97955.94;5022093;28;915;-77
2023/04/29 00:08:26;;;;;;;;;;;;;;;22.26;23.41;97958.50;5001386;28;974;-78
2023/04/29 00:10:51;;;;;;;;;;;;;;;22.03;23.47;97953.13;5005314;28;934;-77
2023/04/29 00:13:17;;;;;;;;;;;;;;;21.35;24.57;97952.16;5018593;28;1967;-77
2023/04/29 00:15:42;;;;;;;;;;;;;;;21.26;24.67;97938.59;5021041;28;943;-78
2023/04/29 00:18:08;;;;;;;;;;;;;;;21.75;24.03;97952.66;5019449;28;1667;-78
2023/04/29 00:20:34;;;;;;;;;;;;;;;22.03;23.72;97950.28;5004177;28;922;-77
2023/04/29 00:22:59;;;;;;;;;;;;;;;22.21;23.46;97959.06;5021308;28;1026;-78
2023/04/29 00:25:25;;;;;;;;;;;;;;;21.82;24.08;97958.16;5023704;28;943;-78
2023/04/29 00:27:50;;;;;;;;;;;;;;;21.47;24.61;97947.81;5041367;28;825;-78
2023/04/29 00:30:16;;;;;;;;;;;;;;;21.63;24.13;97950.59;5023117;28;1203;-78
2023/04/29 00:32:42;;;;;;;;;;;;;;;21.64;24.41;97952.19;5006566;28;1981;-78
2023/04/29 00:35:08;;;;;;;;;;;;;;;21.62;24.14;97951.84;5006216;28;1128;-78
2023/04/29 00:37:34;;;;;;;;;;;;;;;21.67;24.34;97956.16;5023678;28;1142;-77
2023/04/29 00:39:59;;;;;;;;;;;;;;;22.17;23.41;97947.03;5001726;28;1262;-78
2023/04/29 00:42:25;;;;;;;;;;;;;;;21.84;23.68;97946.38;5003141;28;1758;-78
2023/04/29 00:44:51;;;;;;;;;;;;;;;21.71;24.02;97946.34;5002400;28;1065;-77
2023/04/29 00:47:16;;;;;;;;;;;;;;;21.68;24.36;97954.91;5019215;28;985;-78
2023/04/29 00:49:42;;;;;;;;;;;;;;;21.63;24.28;97956.25;5018036;28;1069;-78
2023/04/29 00:52:08;;;;;;;;;;;;;;;21.88;23.96;97949.91;5002102;28;1914;-78
2023/04/29 00:54:34;;;;;;;;;;;;;;;22.03;23.63;97953.13;5001321;28;1725;-77
2023/04/29 00:57:00;;;;;;;;;;;;;;;22.09;23.70;97965.47;5003145;28;1266;-78
2023/04/29 00:59:30;;;;;;;;;;;;;;;22.01;23.68;97953.53;5018304;28;984;-77
2023/04/29 01:02:00;;;;;;;;;;;;;;;21.95;23.66;97949.69;5003868;28;941;-78
2023/04/29 01:04:25;;;;;;;;;;;;;;;21.57;24.15;97949.56;5001571;28;1221;-78
2023/04/29 01:06:57;;;;;;;;;;;;;;;21.88;23.70;97951.94;5003755;28;1269;-78
2023/04/29 01:09:28;;;;;;;;;;;;;;;21.80;23.90;97949.28;5005231;28;1141;-78
2023/04/29 01:12:14;;;;;;;;;;;;;;;21.76;24.02;97942.94;5022387;28;1001;-77
2023/04/29 01:14:40;;;;;;;;;;;;;;;21.66;23.87;97944.03;5004919;28;1229;-79
2023/04/29 01:17:08;;;;;;;;;;;;;;;22.12;23.66;97947.59;4981932;28;1283;-78
2023/04/29 01:19:44;;;;;;;;;;;;;;;22.20;23.33;97937.66;5009781;28;1171;-77
2023/04/29 01:22:11;;;;;;;;;;;;;;;22.32;23.20;97944.56;5027274;28;1009;-78
2023/04/29 01:24:36;;;;;;;;;;;;;;;21.96;23.52;97934.25;5005175;28;1860;-79
2023/04/29 01:27:09;;;;;;;;;;;;;;;21.82;23.88;97941.16;5006375;28;1059;-78
2023/04/29 01:29:53;;;;;;;;;;;;;;;21.70;23.99;97939.06;5006236;28;1187;-78
2023/04/29 01:32:35;;;;;;;;;;;;;;;22.15;23.46;97946.72;5006288;28;1977;-78
2023/04/29 01:35:07;;;;;;;;;;;;;;;22.32;23.33;97945.38;4966006;28;1096;-78
2023/04/29 01:37:34;;;;;;;;;;;;;;;22.03;23.25;97936.13;4967080;28;1123;-77
2023/04/29 01:40:11;;;;;;;;;;;;;;;21.64;23.79;97940.84;4950181;28;1482;-77
2023/04/29 01:42:50;;;;;;;;;;;;;;;21.48;24.21;97946.56;4967076;28;954;-78
2023/04/29 01:45:17;;;;;;;;;;;;;;;21.99;23.41;97943.91;4966477;28;1398;-77
2023/04/29 01:47:44;;;;;;;;;;;;;;;22.36;22.98;97946.06;4950807;28;1290;-77
2023/04/29 01:50:10;;;;;;;;;;;;;;;22.16;23.32;97948.28;4950018;28;1065;-78
2023/04/29 01:52:36;;;;;;;;;;;;;;;21.82;23.47;97954.53;4950585;28;1918;-77
2023/04/29 01:55:02;;;;;;;;;;;;;;;21.55;23.78;97943.53;4970635;28;1367;-78
2023/04/29 01:57:37;;;;;;;;;;;;;;;21.77;23.64;97955.88;4971108;28;1071;-78
2023/04/29 02:00:18;;;;;;;;;;;;;;;22.82;22.31;97955.16;4957573;28;1201;-77
2023/04/29 02:02:49;;;;;;;;;;;;;;;22.07;23.37;97946.09;4986062;28;1112;-77
2023/04/29 02:05:32;;;;;;;;;;;;;;;21.73;23.76;97938.16;4943918;28;1341;-77
2023/04/29 02:07:59;;;;;;;;;;;;;;;21.59;23.86;97947.06;4985687;28;1104;-78
2023/04/29 02:10:26;;;;;;;;;;;;;;;21.97;23.72;97946.41;5001615;28;1135;-77
2023/04/29 02:13:01;;;;;;;;;;;;;;;22.22;23.28;97952.16;4986598;28;1902;-77
2023/04/29 02:15:28;;;;;;;;;;;;;;;22.33;22.98;97944.16;4953980;28;1257;-78
2023/04/29 02:17:54;;;;;;;;;;;;;;;22.21;23.11;97942.06;5000360;28;1778;-78
2023/04/29 02:20:19;;;;;;;;;;;;;;;21.87;23.34;97941.84;5001210;28;985;-77
2023/04/29 02:22:45;;;;;;;;;;;;;;;21.48;23.92;97941.69;5001092;28;1134;-77
2023/04/29 02:25:10;;;;;;;;;;;;;;;22.09;23.20;97945.66;5000990;28;1671;-77
2023/04/29 02:27:36;;;;;;;;;;;;;;;22.32;22.91;97948.19;5001998;28;1230;-78
2023/04/29 02:30:03;;;;;;;;;;;;;;;22.28;22.86;97944.69;4984626;28;1070;-77
2023/04/29 02:32:29;;;;;;;;;;;;;;;21.91;23.43;97945.34;4931023;29;1895;-77
2023/04/29 02:34:55;;;;;;;;;;;;;;;21.57;23.80;97946.72;4962181;29;946;-78
2023/04/29 02:37:20;;;;;;;;;;;;;;;21.36;24.06;97941.63;4984413;28;1099;-78
2023/04/29 02:39:46;;;;;;;;;;;;;;;21.93;23.65;97940.06;5000448;28;1022;-77
2023/04/29 02:42:12;;;;;;;;;;;;;;;22.34;22.99;97948.56;4985575;28;1273;-78
2023/04/29 02:44:37;;;;;;;;;;;;;;;22.32;22.91;97934.03;5001113;28;965;-78
2023/04/29 02:47:03;;;;;;;;;;;;;;;22.01;23.15;97941.41;4985602;28;1240;-78
2023/04/29 02:49:29;;;;;;;;;;;;;;;21.50;23.96;97935.56;4984447;28;1087;-78
2023/04/29 02:51:54;;;;;;;;;;;;;;;21.57;23.63;97941.84;5001598;28;967;-77
2023/04/29 02:54:20;;;;;;;;;;;;;;;21.74;23.50;97933.31;4983813;28;1902;-78
2023/04/29 02:56:46;;;;;;;;;;;;;;;22.15;23.27;97935.38;5001377;28;992;-78
2023/04/29 02:59:12;;;;;;;;;;;;;;;22.21;22.74;97933.56;5000299;28;980;-77
2023/04/29 03:01:37;;;;;;;;;;;;;;;22.02;23.04;97937.34;4985095;28;1320;-78
2023/04/29 03:04:04;;;;;;;;;;;;;;;21.81;23.22;97939.56;4962836;28;1556;-78
2023/04/29 03:06:30;;;;;;;;;;;;;;;21.54;23.82;97936.28;4961948;29;1104;-78
2023/04/29 03:08:56;;;;;;;;;;;;;;;21.84;23.27;97944.31;4945226;29;1103;-77
2023/04/29 03:11:23;;;;;;;;;;;;;;;22.17;22.98;97941.38;4946523;29;898;-77
2023/04/29 03:13:49;;;;;;;;;;;;;;;22.11;23.16;97926.19;4945066;29;1981;-77
2023/04/29 03:16:15;;;;;;;;;;;;;;;22.32;22.85;97945.38;4946617;29;1279;-77
2023/04/29 03:18:44;;;;;;;;;;;;;;;22.12;22.99;97944.75;4929151;29;1383;-78
2023/04/29 03:21:10;;;;;;;;;;;;;;;21.65;23.40;97948.09;4931124;29;1098;-78
2023/04/29 03:23:38;;;;;;;;;;;;;;;21.42;24.02;97945.50;4943751;29;1207;-77
2023/04/29 03:26:04;;;;;;;;;;;;;;;22.06;22.96;97955.03;4930980;29;1299;-78
2023/04/29 03:28:29;;;;;;;;;;;;;;;22.04;23.30;97943.38;4912212;29;1549;-78
2023/04/29 03:30:56;;;;;;;;;;;;;;;21.93;23.19;97945.72;4962376;28;1067;-78
2023/04/29 03:33:21;;;;;;;;;;;;;;;21.60;23.53;97951.47;4891010;29;1899;-78
2023/04/29 03:35:47;;;;;;;;;;;;;;;21.39;23.79;97946.38;4923185;29;1110;-78
2023/04/29 03:38:36;;;;;;;;;;;;;;;22.08;23.29;97947.69;4980432;28;1451;-78
2023/04/29 03:41:03;;;;;;;;;;;;;;;22.27;22.94;97947.97;4984615;28;1113;-77
2023/04/29 03:43:30;;;;;;;;;;;;;;;22.25;22.96;97950.47;4966304;28;1160;-78
2023/04/29 03:45:55;;;;;;;;;;;;;;;22.05;23.19;97944.94;4946570;29;1113;-78
2023/04/29 03:48:22;;;;;;;;;;;;;;;21.57;23.56;97947.50;4959737;29;1269;-77
2023/04/29 03:50:48;;;;;;;;;;;;;;;21.55;23.81;97944.34;4889131;29;1600;-77
2023/04/29 03:53:13;;;;;;;;;;;;;;;21.83;23.25;97950.44;4887591;29;1907;-77
2023/04/29 03:55:39;;;;;;;;;;;;;;;21.90;23.49;97947.41;4889052;29;1114;-78
2023/04/29 03:58:05;;;;;;;;;;;;;;;21.74;23.32;97945.41;4872070;29;1253;-78
2023/04/29 04:00:31;;;;;;;;;;;;;;;21.82;23.42;97948.88;4903990;29;1241;-77
2023/04/29 04:02:57;;;;;;;;;;;;;;;21.77;23.55;97943.75;4872263;29;1253;-78
2023/04/29 04:05:24;;;;;;;;;;;;;;;22.06;23.15;97955.03;4923063;29;1130;-77
2023/04/29 04:07:54;;;;;;;;;;;;;;;21.77;23.36;97950.19;4941312;29;1261;-78
2023/04/29 04:10:35;;;;;;;;;;;;;;;21.77;23.38;97947.38;4942385;29;964;-78
2023/04/29 04:13:05;;;;;;;;;;;;;;;21.33;23.97;97944.09;4940684;29;1977;-78
2023/04/29 04:15:31;;;;;;;;;;;;;;;21.70;23.71;97947.56;4941711;29;2026;-77
2023/04/29 04:17:58;;;;;;;;;;;;;;;21.82;23.50;97946.81;4977311;28;1337;-77
2023/04/29 04:20:23;;;;;;;;;;;;;;;21.96;23.43;97950.47;4947867;28;1154;-77
2023/04/29 04:22:49;;;;;;;;;;;;;;;21.91;23.14;97953.84;4948127;28;1409;-77
2023/04/29 04:25:22;;;;;;;;;;;;;;;21.60;23.53;97945.81;4965282;28;1375;-79
2023/04/29 04:27:49;;;;;;;;;;;;;;;21.86;23.29;97941.03;4968277;28;990;-78
2023/04/29 04:30:26;;;;;;;;;;;;;;;22.10;22.87;97939.56;5023987;28;1209;-78
2023/04/29 04:32:53;;;;;;;;;;;;;;;22.05;22.98;97942.91;5023422;28;1958;-78
2023/04/29 04:35:18;;;;;;;;;;;;;;;21.91;23.16;97936.84;5006919;28;1238;-78
2023/04/29 04:37:44;;;;;;;;;;;;;;;21.76;23.43;97936.47;5023511;28;1143;-78
2023/04/29 04:40:10;;;;;;;;;;;;;;;21.47;23.97;97947.81;4966420;28;1128;-78
2023/04/29 04:42:47;;;;;;;;;;;;;;;21.58;23.87;97951.13;4988713;28;1317;-78
2023/04/29 04:45:14;;;;;;;;;;;;;;;22.02;23.33;97943.00;5005947;28;1395;-78
2023/04/29 04:47:48;;;;;;;;;;;;;;;22.16;22.96;97947.50;5006046;28;1202;-78
2023/04/29 04:50:20;;;;;;;;;;;;;;;22.17;22.89;97955.53;4990394;28;1136;-77
2023/04/29 04:52:47;;;;;;;;;;;;;;;22.00;23.00;97945.50;5005333;28;1911;-78
2023/04/29 04:55:30;;;;;;;;;;;;;;;21.61;23.82;97943.78;5005608;28;1229;-78
2023/04/29 04:57:56;;;;;;;;;;;;;;;21.55;23.90;97950.00;5005534;28;1120;-79
2023/04/29 05:00:21;;;;;;;;;;;;;;;21.73;23.57;97948.72;5006112;28;1143;-78
2023/04/29 05:02:47;;;;;;;;;;;;;;;22.05;23.33;97947.78;4989121;28;985;-78
2023/04/29 05:05:13;;;;;;;;;;;;;;;21.72;23.66;97945.09;5005290;28;1268;-78
2023/04/29 05:07:40;;;;;;;;;;;;;;;21.94;23.48;97950.13;4970087;28;1077;-78
2023/04/29 05:10:07;;;;;;;;;;;;;;;21.53;23.72;97946.00;4970857;28;1199;-78
2023/04/29 05:12:40;;;;;;;;;;;;;;;22.06;23.35;97955.81;4989433;28;1902;-78
2023/04/29 05:15:06;;;;;;;;;;;;;;;22.20;23.14;97951.81;4988645;28;1163;-78
2023/04/29 05:17:35;;;;;;;;;;;;;;;22.09;23.08;97948.47;4957870;28;1086;-78
2023/04/29 05:20:01;;;;;;;;;;;;;;;21.90;23.56;97953.06;4941052;28;1505;-78
2023/04/29 05:22:28;;;;;;;;;;;;;;;21.92;23.38;97961.94;5006454;28;1027;-77
2023/04/29 05:24:59;;;;;;;;;;;;;;;21.81;23.50;97959.41;4988804;28;1348;-78
2023/04/29 05:27:24;;;;;;;;;;;;;;;21.90;23.59;97957.94;4974577;28;940;-78
2023/04/29 05:29:50;;;;;;;;;;;;;;;22.22;22.98;97957.81;4989252;28;1197;-78
2023/04/29 05:32:16;;;;;;;;;;;;;;;22.30;22.92;97956.38;5006416;28;1950;-78
2023/04/29 05:34:43;;;;;;;;;;;;;;;21.97;23.42;97966.25;4988322;28;1229;-78
2023/04/29 05:37:09;;;;;;;;;;;;;;;21.81;23.69;97956.56;4957639;28;1207;-78
2023/04/29 05:39:48;;;;;;;;;;;;;;;21.76;23.88;97957.13;5012307;28;1583;-80
2023/04/29 05:42:16;;;;;;;;;;;;;;;21.87;23.45;97956.03;5013229;28;1125;-79
2023/04/29 05:44:46;;;;;;;;;;;;;;;22.10;23.15;97955.72;5004399;28;1219;-78
2023/04/29 05:47:12;;;;;;;;;;;;;;;22.30;22.89;97956.38;4989838;28;1184;-78
2023/04/29 05:49:38;;;;;;;;;;;;;;;21.59;23.73;97955.56;4972764;28;1125;-78
2023/04/29 05:52:05;;;;;;;;;;;;;;;21.66;23.66;97952.53;4989248;28;1064;-78
2023/04/29 05:54:34;;;;;;;;;;;;;;;21.27;24.29;97951.50;4985304;28;1167;-78
2023/04/29 05:57:02;;;;;;;;;;;;;;;21.68;24.07;97952.88;4970512;28;1139;-78
2023/04/29 05:59:31;;;;;;;;;;;;;;;22.04;23.38;97947.00;4969309;28;1193;-78
2023/04/29 06:01:58;;;;;;;;;;;;;;;22.29;22.89;97945.50;4970901;28;1420;-79
2023/04/29 06:04:24;;;;;;;;;;;;;;;21.85;23.51;97948.75;4969373;28;1141;-78
2023/04/29 06:07:11;;;;;;;;;;;;;;;21.85;23.46;97951.56;4988823;28;1290;-78
2023/04/29 06:09:46;;;;;;;;;;;;;;;21.60;23.95;97945.81;4955645;28;1316;-78
2023/04/29 06:12:12;;;;;;;;;;;;;;;21.64;24.08;97946.50;4986072;28;1966;-78
2023/04/29 06:14:40;;;;;;;;;;;;;;;21.81;23.63;97950.91;4971654;28;1139;-79
2023/04/29 06:17:05;;;;;;;;;;;;;;;21.64;23.91;97957.84;5002786;28;1286;-79
2023/04/29 06:19:32;;;;;;;;;;;;;;;21.53;24.04;97952.47;4985118;28;1355;-78
2023/04/29 06:21:58;;;;;;;;;;;;;;;22.24;23.14;97955.34;4982281;28;1285;-78
2023/04/29 06:24:23;;;;;;;;;;;;;;;22.21;23.10;97953.41;4981335;28;1213;-78
2023/04/29 06:26:49;;;;;;;;;;;;;;;22.29;23.25;97954.78;4965732;28;1254;-79
2023/04/29 06:29:15;;;;;;;;;;;;;;;21.68;23.72;97954.91;4981223;28;1152;-77
2023/04/29 06:31:42;;;;;;;;;;;;;;;21.63;23.87;97961.91;4982285;28;1361;-78
2023/04/29 06:34:08;;;;;;;;;;;;;;;21.42;24.32;97962.50;4981005;28;1914;-78
2023/04/29 06:36:42;;;;;;;;;;;;;;;22.00;23.47;97956.84;4978603;28;1404;-78
2023/04/29 06:39:26;;;;;;;;;;;;;;;22.14;23.25;97961.34;4975346;28;1030;-78
2023/04/29 06:42:12;;;;;;;;;;;;;;;22.27;23.13;97953.63;4962591;29;1016;-79
2023/04/29 06:44:49;;;;;;;;;;;;;;;22.31;22.89;97952.28;4946098;29;1255;-77
2023/04/29 06:47:38;;;;;;;;;;;;;;;21.99;23.57;97946.75;4946941;29;1132;-79
2023/04/29 06:50:10;;;;;;;;;;;;;;;21.84;23.63;97957.69;4961497;28;1330;-78
2023/04/29 06:52:36;;;;;;;;;;;;;;;21.76;23.60;97948.63;4945593;29;1979;-79
2023/04/29 06:55:02;;;;;;;;;;;;;;;21.87;23.77;97953.19;4961109;28;1253;-78
2023/04/29 06:57:28;;;;;;;;;;;;;;;21.81;23.69;97950.06;4924529;29;964;-79
2023/04/29 06:59:53;;;;;;;;;;;;;;;21.69;23.81;97948.78;4923175;29;1150;-78
2023/04/29 07:02:19;;;;;;;;;;;;;;;21.93;23.62;97955.00;4924233;29;1106;-78
2023/04/29 07:04:47;;;;;;;;;;;;;;;21.77;23.51;97955.88;4922529;29;1033;-79
2023/04/29 07:07:14;;;;;;;;;;;;;;;21.66;23.66;97954.56;4923897;29;1314;-78
2023/04/29 07:09:40;;;;;;;;;;;;;;;21.66;23.71;97955.38;4923124;29;1101;-79
2023/04/29 07:12:05;;;;;;;;;;;;;;;22.05;23.46;97953.44;4928519;29;939;-79
2023/04/29 07:14:31;;;;;;;;;;;;;;;22.38;22.97;97958.97;4959207;28;1891;-79
2023/04/29 07:16:56;;;;;;;;;;;;;;;22.16;23.26;97959.63;4965741;28;1079;-78
2023/04/29 07:19:22;;;;;;;;;;;;;;;21.89;23.21;97957.16;4980631;28;1036;-79
2023/04/29 07:21:47;;;;;;;;;;;;;;;21.78;23.50;97946.13;4965358;28;975;-79
2023/04/29 07:24:13;;;;;;;;;;;;;;;21.68;23.84;97952.88;4963760;28;1370;-78
2023/04/29 07:26:39;;;;;;;;;;;;;;;22.20;23.13;97960.31;4965442;28;1131;-79
2023/04/29 07:29:05;;;;;;;;;;;;;;;22.31;22.75;97954.31;4948426;28;1127;-79
2023/04/29 07:31:32;;;;;;;;;;;;;;;22.02;23.14;97954.34;4965717;28;1128;-79
2023/04/29 07:34:01;;;;;;;;;;;;;;;21.92;23.52;97958.31;4967289;28;1992;-79
2023/04/29 07:36:27;;;;;;;;;;;;;;;21.73;23.48;97951.53;5000801;28;1230;-78
2023/04/29 07:38:53;;;;;;;;;;;;;;;21.56;23.62;97957.25;4999270;28;1225;-78
2023/04/29 07:41:19;;;;;;;;;;;;;;;21.81;23.48;97959.41;5000305;28;1129;-78
2023/04/29 07:43:45;;;;;;;;;;;;;;;21.93;23.27;97957.06;4998665;28;1063;-78
2023/04/29 07:46:10;;;;;;;;;;;;;;;21.94;23.11;97950.13;5000889;28;1162;-78
2023/04/29 07:48:39;;;;;;;;;;;;;;;21.93;23.23;97957.84;4999425;28;1117;-79
2023/04/29 07:51:05;;;;;;;;;;;;;;;21.67;23.38;97959.00;5001393;28;1127;-79
2023/04/29 07:53:30;;;;;;;;;;;;;;;21.58;23.76;97953.97;4998640;28;1991;-78
2023/04/29 07:55:56;;;;;;;;;;;;;;;22.07;23.12;97956.63;5001042;28;939;-78
2023/04/29 07:58:23;;;;;;;;;;;;;;;22.24;22.61;97949.69;4998860;28;1270;-79
2023/04/29 08:00:48;;;;;;;;;;;;;;;22.08;22.95;97946.91;5022867;28;832;-79
2023/04/29 08:03:14;;;;;;;;;;;;;;;21.98;22.87;97942.34;5019140;28;1688;-79
2023/04/29 08:05:39;;;;;;;;;;;;;;;21.83;23.35;97942.75;5004408;28;1439;-79
2023/04/29 08:08:05;;;;;;;;;;;;;;;21.83;23.11;97948.41;5003572;28;1668;-79
2023/04/29 08:10:31;;;;;;;;;;;;;;;21.58;23.61;97949.09;5020795;28;1247;-78
2023/04/29 08:12:56;;;;;;;;;;;;;;;21.68;23.53;97941.56;5020705;28;1914;-79
2023/04/29 08:15:22;;;;;;;;;;;;;;;22.02;22.92;97938.16;4986946;28;1259;-78
2023/04/29 08:17:48;;;;;;;;;;;;;;;22.34;22.68;97942.09;4987033;28;1651;-78
2023/04/29 08:20:14;;;;;;;;;;;;;;;22.34;22.33;97930.75;4971116;28;1376;-78
2023/04/29 08:22:39;;;;;;;;;;;;;;;21.99;22.96;97935.41;4987368;28;961;-78
2023/04/29 08:25:05;;;;;;;;;;;;;;;21.65;23.35;97935.97;5003099;28;1046;-79
2023/04/29 08:27:31;;;;;;;;;;;;;;;21.52;23.72;97935.94;4987481;28;1008;-78
2023/04/29 08:29:56;;;;;;;;;;;;;;;21.51;23.57;97937.19;4986925;28;1262;-78
2023/04/29 08:32:22;;;;;;;;;;;;;;;22.22;22.63;97929.47;4967718;28;1918;-78
2023/04/29 08:34:47;;;;;;;;;;;;;;;22.24;22.60;97924.16;4982648;28;947;-79
2023/04/29 08:37:14;;;;;;;;;;;;;;;22.16;22.84;97931.28;5000344;28;970;-78
2023/04/29 08:39:39;;;;;;;;;;;;;;;21.61;23.27;97924.78;4998903;28;974;-79
2023/04/29 08:42:06;;;;;;;;;;;;;;;21.66;23.53;97915.72;4983518;28;1215;-79
2023/04/29 08:44:33;;;;;;;;;;;;;;;21.71;23.51;97912.34;4966266;28;1138;-79
2023/04/29 08:46:59;;;;;;;;;;;;;;;22.01;23.28;97930.09;4983685;28;1100;-79
2023/04/29 08:49:25;;;;;;;;;;;;;;;22.13;22.64;97920.06;4982778;28;947;-79
2023/04/29 08:51:50;;;;;;;;;;;;;;;22.13;22.91;97914.41;5000371;28;877;-79
2023/04/29 08:54:16;;;;;;;;;;;;;;;21.78;23.30;97922.66;4999189;28;1902;-78
2023/04/29 08:56:44;;;;;;;;;;;;;;;21.54;23.70;97919.28;4999911;28;1010;-79
2023/04/29 08:59:09;;;;;;;;;;;;;;;21.57;23.63;97924.06;4966489;28;1231;-79
2023/04/29 09:01:34;;;;;;;;;;;;;;;21.67;23.51;97917.31;4951824;28;1207;-79
2023/04/29 09:04:15;;;;;;;;;;;;;;;22.11;23.06;97912.00;4982496;28;1136;-79
2023/04/29 09:06:41;;;;;;;;;;;;;;;22.45;22.56;97919.09;5021900;28;917;-78
2023/04/29 09:09:06;;;;;;;;;;;;;;;22.19;22.85;97912.59;5003311;28;905;-78
2023/04/29 09:11:32;;;;;;;;;;;;;;;21.95;23.12;97914.91;5003436;28;1201;-78
2023/04/29 09:14:01;;;;;;;;;;;;;;;22.00;22.94;97900.16;5002687;28;1977;-79
2023/04/29 09:16:27;;;;;;;;;;;;;;;21.71;23.38;97901.03;4987898;28;1194;-79
2023/04/29 09:18:54;;;;;;;;;;;;;;;21.65;23.68;97897.13;5002757;28;958;-79
2023/04/29 09:21:20;;;;;;;;;;;;;;;21.77;23.48;97882.22;5004764;28;910;-79
2023/04/29 09:23:46;;;;;;;;;;;;;;;21.71;23.39;97895.34;4961953;28;1210;-78
2023/04/29 09:26:12;;;;;;;;;;;;;;;21.90;23.33;97884.28;4942093;29;1021;-79
2023/04/29 09:28:40;;;;;;;;;;;;;;;22.28;22.61;97890.84;4919446;29;983;-79
2023/04/29 09:31:07;;;;;;;;;;;;;;;22.29;22.73;97883.94;4908430;29;1024;-78
2023/04/29 09:33:53;;;;;;;;;;;;;;;22.17;22.89;97887.53;4905400;29;1899;-79
2023/04/29 09:36:37;;;;;;;;;;;;;;;21.80;23.17;97886.97;4907080;29;1070;-79
2023/04/29 09:39:12;;;;;;;;;;;;;;;21.64;23.78;97878.56;4906046;29;844;-79
2023/04/29 09:41:42;;;;;;;;;;;;;;;21.92;23.37;97870.50;4906504;29;961;-79
2023/04/29 09:44:08;;;;;;;;;;;;;;;22.24;22.82;97864.66;4905689;29;955;-79
2023/04/29 09:46:35;;;;;;;;;;;;;;;22.11;23.12;97878.00;4906783;29;922;-79
2023/04/29 09:49:03;;;;;;;;;;;;;;;21.99;23.38;97864.59;4906320;29;985;-79
2023/04/29 09:51:31;;;;;;;;;;;;;;;21.69;23.58;97857.38;4906647;29;927;-79
2023/04/29 09:53:58;;;;;;;;;;;;;;;21.52;23.68;97865.16;4906220;29;1899;-80
2023/04/29 09:56:27;;;;;;;;;;;;;;;21.52;24.05;97865.16;4870619;29;1037;-79
2023/04/29 09:58:54;;;;;;;;;;;;;;;21.87;23.42;97854.03;4873379;29;1105;-78
2023/04/29 10:01:20;;;;;;;;;;;;;;;21.85;23.35;97855.28;4894345;29;973;-80
2023/04/29 10:03:47;;;;;;;;;;;;;;;21.55;23.82;97853.75;4923620;29;1381;-79
2023/04/29 10:06:13;;;;;;;;;;;;;;;22.16;23.06;97851.94;4965750;29;971;-79
2023/04/29 10:08:40;;;;;;;;;;;;;;;22.14;23.07;97845.94;4963843;29;1014;-79
2023/04/29 10:11:05;;;;;;;;;;;;;;;22.21;23.04;97848.53;4966703;29;997;-79
2023/04/29 10:13:31;;;;;;;;;;;;;;;21.99;23.14;97851.22;4963538;29;1879;-80
2023/04/29 10:16:06;;;;;;;;;;;;;;;21.68;23.66;97850.16;4978743;28;2112;-79
2023/04/29 10:18:36;;;;;;;;;;;;;;;21.58;23.92;97846.38;4966966;28;1038;-79
2023/04/29 10:21:01;;;;;;;;;;;;;;;21.56;23.87;97848.88;4937553;28;1340;-79
2023/04/29 10:23:27;;;;;;;;;;;;;;;21.61;23.78;97834.16;4950238;28;1193;-80
2023/04/29 10:25:52;;;;;;;;;;;;;;;22.01;23.30;97845.09;4968740;28;959;-79
2023/04/29 10:28:18;;;;;;;;;;;;;;;22.29;23.16;97846.28;5003469;28;1033;-79
2023/04/29 10:30:44;;;;;;;;;;;;;;;21.67;23.75;97838.03;4984928;28;1013;-79
2023/04/29 10:33:10;;;;;;;;;;;;;;;21.51;23.91;97836.06;4950770;28;1958;-80
2023/04/29 10:35:36;;;;;;;;;;;;;;;21.93;23.46;97832.41;4985315;28;950;-80
2023/04/29 10:38:04;;;;;;;;;;;;;;;21.68;23.80;97827.50;4967210;28;950;-79
2023/04/29 10:40:30;;;;;;;;;;;;;;;22.14;23.36;97825.31;4924822;29;972;-79
2023/04/29 10:42:56;;;;;;;;;;;;;;;22.22;23.17;97821.00;4872144;29;1166;-80
2023/04/29 10:45:22;;;;;;;;;;;;;;;22.27;22.85;97835.38;4857561;29;993;-79
2023/04/29 10:48:07;;;;;;;;;;;;;;;21.91;23.58;97829.22;4851020;29;965;-80
2023/04/29 10:50:44;;;;;;;;;;;;;;;21.68;23.63;97833.94;4836377;29;1174;-80
2023/04/29 10:53:09;;;;;;;;;;;;;;;21.44;24.12;97829.78;4835719;29;1884;-80
2023/04/29 10:55:36;;;;;;;;;;;;;;;21.73;23.81;97822.06;4820822;29;1094;-79
2023/04/29 10:58:02;;;;;;;;;;;;;;;21.56;23.94;97818.53;4820160;29;951;-79
2023/04/29 11:00:28;;;;;;;;;;;;;;;21.72;23.79;97811.97;4836092;29;1020;-80
2023/04/29 11:02:54;;;;;;;;;;;;;;;22.18;23.38;97826.78;4871138;29;895;-80
2023/04/29 11:05:32;;;;;;;;;;;;;;;22.48;22.77;97813.25;4888506;29;930;-79
2023/04/29 11:08:11;;;;;;;;;;;;;;;21.78;23.57;97815.84;4888018;29;1047;-80
2023/04/29 11:10:37;;;;;;;;;;;;;;;21.67;23.80;97812.53;4893327;29;1444;-79
2023/04/29 11:13:22;;;;;;;;;;;;;;;21.92;23.72;97805.34;4929350;28;1975;-79
2023/04/29 11:15:47;;;;;;;;;;;;;;;21.71;23.95;97804.75;4910728;29;996;-79
2023/04/29 11:18:13;;;;;;;;;;;;;;;21.42;24.18;97803.97;4908031;29;958;-79
2023/04/29 11:20:57;;;;;;;;;;;;;;;22.07;23.35;97798.75;4926568;29;1242;-79
2023/04/29 11:23:23;;;;;;;;;;;;;;;22.23;23.34;97789.38;4923065;29;1221;-79
2023/04/29 11:25:49;;;;;;;;;;;;;;;22.01;23.31;97797.72;4952992;28;1034;-79
2023/04/29 11:28:14;;;;;;;;;;;;;;;21.69;23.60;97795.88;4965448;28;960;-79
2023/04/29 11:30:40;;;;;;;;;;;;;;;21.61;24.01;97771.88;4950422;28;1009;-79
2023/04/29 11:33:07;;;;;;;;;;;;;;;21.57;24.25;97793.84;4965570;28;1954;-79
2023/04/29 11:35:33;;;;;;;;;;;;;;;22.08;23.32;97799.56;4982619;28;1067;-79
2023/04/29 11:37:58;;;;;;;;;;;;;;;22.29;23.00;97781.88;4981978;28;1016;-79
2023/04/29 11:40:24;;;;;;;;;;;;;;;21.99;23.33;97780.38;4950126;28;1025;-79
2023/04/29 11:42:50;;;;;;;;;;;;;;;21.83;23.54;97778.47;4949653;28;957;-79
2023/04/29 11:45:16;;;;;;;;;;;;;;;21.82;23.61;97782.53;4949766;28;1174;-80
2023/04/29 11:47:45;;;;;;;;;;;;;;;21.76;23.85;97778.69;4982239;28;948;-79
2023/04/29 11:50:10;;;;;;;;;;;;;;;22.04;23.61;97782.66;4965289;28;1019;-80
2023/04/29 11:52:37;;;;;;;;;;;;;;;22.29;22.99;97769.75;4965441;28;1906;-79
2023/04/29 11:55:04;;;;;;;;;;;;;;;22.15;23.24;97765.34;5008059;28;1587;-79
2023/04/29 11:57:29;;;;;;;;;;;;;;;21.79;23.61;97766.44;5026424;28;965;-80
2023/04/29 11:59:58;;;;;;;;;;;;;;;21.69;23.69;97761.91;5024430;28;864;-78
2023/04/29 12:02:30;;;;;;;;;;;;;;;21.51;23.96;97756.00;5020934;28;993;-80
2023/04/29 12:04:56;;;;;;;;;;;;;;;21.99;23.34;97749.22;4986708;28;1184;-79
2023/04/29 12:07:22;;;;;;;;;;;;;;;22.28;22.90;97756.84;4989330;28;994;-79
2023/04/29 12:09:48;;;;;;;;;;;;;;;22.22;23.01;97750.94;4982040;28;1015;-79
2023/04/29 12:12:13;;;;;;;;;;;;;;;21.77;23.47;97746.28;4982721;28;1018;-79
2023/04/29 12:14:39;;;;;;;;;;;;;;;21.83;23.51;97752.97;4947578;28;1918;-79
2023/04/29 12:17:05;;;;;;;;;;;;;;;21.74;23.57;97735.84;4946330;29;973;-79
2023/04/29 12:19:31;;;;;;;;;;;;;;;21.43;24.09;97746.13;4929352;29;1101;-79
2023/04/29 12:21:59;;;;;;;;;;;;;;;21.58;23.92;97750.13;4963366;29;1260;-80
2023/04/29 12:24:25;;;;;;;;;;;;;;;22.10;23.14;97746.03;4930264;29;1212;-79
2023/04/29 12:26:52;;;;;;;;;;;;;;;22.14;23.03;97735.44;4931588;29;1058;-79
2023/04/29 12:29:21;;;;;;;;;;;;;;;22.01;23.15;97737.44;4929607;29;1302;-80
2023/04/29 12:31:46;;;;;;;;;;;;;;;21.62;23.72;97739.47;4931256;29;1006;-79
2023/04/29 12:34:12;;;;;;;;;;;;;;;21.61;23.82;97749.22;4913091;29;1975;-79
2023/04/29 12:36:40;;;;;;;;;;;;;;;21.62;23.67;97738.69;4962316;29;1161;-79
2023/04/29 12:39:08;;;;;;;;;;;;;;;22.17;23.31;97734.50;4961078;29;934;-80
2023/04/29 12:41:40;;;;;;;;;;;;;;;22.43;22.58;97734.44;4995315;28;962;-79
2023/04/29 12:44:06;;;;;;;;;;;;;;;22.16;22.69;97732.91;4983824;28;1015;-80
2023/04/29 12:46:38;;;;;;;;;;;;;;;21.76;23.25;97733.38;5000933;28;963;-80
2023/04/29 12:49:04;;;;;;;;;;;;;;;21.54;23.55;97735.28;5000404;28;891;-80
2023/04/29 12:51:31;;;;;;;;;;;;;;;21.66;23.35;97740.16;5017421;28;962;-80
2023/04/29 12:53:57;;;;;;;;;;;;;;;21.51;23.66;97733.34;5016691;28;1898;-79
2023/04/29 12:56:23;;;;;;;;;;;;;;;21.61;23.74;97731.44;5017888;28;976;-79
2023/04/29 12:58:48;;;;;;;;;;;;;;;22.21;22.78;97728.72;5016593;28;1138;-79
2023/04/29 13:01:15;;;;;;;;;;;;;;;22.23;22.68;97721.38;4985909;28;1128;-79
2023/04/29 13:03:40;;;;;;;;;;;;;;;21.84;23.13;97712.06;5003024;28;1203;-79